Time;durP1;ratioP1;P1;durP2;ratioP2;P2;SDS_P1;SDS_P2;PMS_P1;PMS_P2;Temp;Humidity;BMP_temperature;BMP_pressure;BME280_temperature;BME280_humidity;BME280_pressure;Samples;Min_cycle;Max_cycle;Signal;HPM_P1;HPM_P2
2022/04/17 00:00:46;;;;;;;4.47;2.88;;;;;;;;;;5094787;28;20020;-87
2022/04/17 00:03:11;;;;;;;4.72;3.00;;;;;;;;;;5093273;28;20031;-88
2022/04/17 00:05:37;;;;;;;4.13;2.95;;;;;;;;;;5101709;28;20024;-87
2022/04/17 00:08:03;;;;;;;4.35;3.15;;;;;;;;;;5097871;28;20024;-88
2022/04/17 00:10:29;;;;;;;4.85;2.97;;;;;;;;;;5094400;28;20020;-86
2022/04/17 00:12:55;;;;;;;4.85;2.83;;;;;;;;;;5094499;28;20086;-86
2022/04/17 00:15:20;;;;;;;4.55;3.03;;;;;;;;;;5094342;28;20079;-87
2022/04/17 00:17:46;;;;;;;5.00;3.28;;;;;;;;;;5094351;28;20436;-88
2022/04/17 00:20:12;;;;;;;4.38;3.10;;;;;;;;;;5094370;28;20033;-88
2022/04/17 00:22:38;;;;;;;3.88;2.85;;;;;;;;;;5094006;28;20020;-87
2022/04/17 00:25:03;;;;;;;5.50;3.42;;;;;;;;;;5097257;28;20028;-85
2022/04/17 00:27:29;;;;;;;4.28;2.83;;;;;;;;;;5106747;28;20524;-87
2022/04/17 00:29:54;;;;;;;5.00;2.72;;;;;;;;;;5098835;28;20082;-87
2022/04/17 00:32:20;;;;;;;4.25;3.10;;;;;;;;;;5099805;28;20028;-87
2022/04/17 00:34:45;;;;;;;4.85;3.17;;;;;;;;;;5099965;28;20506;-87
2022/04/17 00:37:11;;;;;;;3.97;2.97;;;;;;;;;;5100065;28;20061;-87
2022/04/17 00:39:36;;;;;;;5.32;3.08;;;;;;;;;;5109436;28;20036;-87
2022/04/17 00:42:05;;;;;;;7.10;2.90;;;;;;;;;;5113777;28;20042;-87
2022/04/17 00:44:30;;;;;;;4.85;2.95;;;;;;;;;;5111344;28;20059;-86
2022/04/17 00:46:56;;;;;;;4.15;3.03;;;;;;;;;;5114462;28;20024;-87
2022/04/17 00:49:22;;;;;;;5.60;3.15;;;;;;;;;;5111373;28;20019;-88
2022/04/17 00:51:47;;;;;;;4.55;3.17;;;;;;;;;;5114716;28;20693;-87
2022/04/17 00:54:14;;;;;;;5.15;3.15;;;;;;;;;;5098900;28;20036;-86
2022/04/17 00:56:40;;;;;;;4.85;3.15;;;;;;;;;;5096493;28;20071;-86
2022/04/17 00:59:11;;;;;;;7.65;3.38;;;;;;;;;;5096795;28;20051;-87
2022/04/17 01:01:37;;;;;;;6.88;3.78;;;;;;;;;;5097899;28;20016;-87
2022/04/17 01:04:04;;;;;;;4.70;3.10;;;;;;;;;;5096614;28;20028;-87
2022/04/17 01:06:30;;;;;;;4.82;2.97;;;;;;;;;;5105044;28;20023;-87
2022/04/17 01:08:56;;;;;;;4.97;2.95;;;;;;;;;;5100271;28;20028;-88
2022/04/17 01:11:21;;;;;;;5.40;3.20;;;;;;;;;;5096662;28;20051;-87
2022/04/17 01:13:47;;;;;;;7.55;4.05;;;;;;;;;;5079560;28;20084;-88
2022/04/17 01:16:16;;;;;;;5.00;3.30;;;;;;;;;;5097478;28;20036;-88
2022/04/17 01:19:03;;;;;;;6.20;3.53;;;;;;;;;;5097562;28;20031;-87
2022/04/17 01:21:29;;;;;;;4.95;3.58;;;;;;;;;;5097350;28;20075;-86
2022/04/17 01:26:56;;;;;;;4.40;3.38;;;;;;;;;;5101115;28;20515;-86
2022/04/17 01:29:30;;;;;;;6.82;3.83;;;;;;;;;;5083131;28;20425;-87
2022/04/17 01:31:56;;;;;;;6.00;3.78;;;;;;;;;;5097199;28;20071;-87
2022/04/17 01:34:22;;;;;;;10.02;4.13;;;;;;;;;;5096072;28;20418;-88
2022/04/17 01:36:48;;;;;;;7.60;3.70;;;;;;;;;;5095907;28;20380;-87
2022/04/17 01:39:14;;;;;;;6.65;3.60;;;;;;;;;;5096998;28;20122;-86
2022/04/17 01:41:39;;;;;;;6.00;3.92;;;;;;;;;;5097512;28;20169;-88
2022/04/17 01:44:06;;;;;;;6.35;3.78;;;;;;;;;;5097014;28;20028;-87
2022/04/17 01:46:31;;;;;;;5.53;3.53;;;;;;;;;;5099354;28;20024;-87
2022/04/17 01:48:57;;;;;;;6.75;4.28;;;;;;;;;;5101145;28;20035;-86
2022/04/17 01:51:22;;;;;;;7.93;4.03;;;;;;;;;;5096987;28;20031;-88
2022/04/17 01:53:48;;;;;;;7.38;4.25;;;;;;;;;;5096991;28;20031;-88
2022/04/17 01:56:13;;;;;;;9.75;3.90;;;;;;;;;;5096728;28;20403;-87
2022/04/17 01:58:39;;;;;;;6.53;4.03;;;;;;;;;;5097253;28;20034;-86
2022/04/17 02:01:05;;;;;;;6.70;3.47;;;;;;;;;;5096649;28;20114;-87
2022/04/17 02:03:30;;;;;;;6.25;4.03;;;;;;;;;;5095970;28;20081;-87
2022/04/17 02:05:56;;;;;;;6.15;3.65;;;;;;;;;;5096593;28;20031;-87
2022/04/17 02:08:21;;;;;;;6.50;3.53;;;;;;;;;;5104612;28;20036;-87
2022/04/17 02:10:47;;;;;;;5.28;3.60;;;;;;;;;;5096404;28;20450;-88
2022/04/17 02:13:12;;;;;;;6.47;3.40;;;;;;;;;;5095630;28;20139;-86
2022/04/17 02:15:38;;;;;;;8.43;3.95;;;;;;;;;;5095186;28;20027;-85
2022/04/17 02:18:03;;;;;;;6.75;3.83;;;;;;;;;;5096856;28;20460;-86
2022/04/17 02:20:29;;;;;;;7.50;4.13;;;;;;;;;;5095656;28;20039;-86
2022/04/17 02:22:54;;;;;;;6.55;3.83;;;;;;;;;;5095945;28;20028;-87
2022/04/17 02:25:20;;;;;;;6.90;4.13;;;;;;;;;;5096178;28;20071;-87
2022/04/17 02:27:45;;;;;;;7.28;3.95;;;;;;;;;;5102774;28;20016;-87
2022/04/17 02:30:11;;;;;;;7.10;3.92;;;;;;;;;;5097837;28;20032;-87
2022/04/17 02:32:36;;;;;;;6.63;4.38;;;;;;;;;;5095955;28;20035;-87
2022/04/17 02:35:02;;;;;;;6.75;3.88;;;;;;;;;;5094953;28;20110;-87
2022/04/17 02:37:28;;;;;;;8.18;4.35;;;;;;;;;;5094445;28;20039;-87
2022/04/17 02:39:54;;;;;;;5.78;3.88;;;;;;;;;;5095795;28;20453;-86
2022/04/17 02:42:19;;;;;;;7.90;4.25;;;;;;;;;;5095932;28;20035;-86
2022/04/17 02:44:45;;;;;;;8.65;4.25;;;;;;;;;;5095721;28;20024;-86
2022/04/17 02:49:54;;;;;;;6.65;3.90;;;;;;;;;;5098863;28;20092;-87
2022/04/17 02:52:20;;;;;;;8.10;4.00;;;;;;;;;;5095479;28;20031;-86
2022/04/17 02:54:45;;;;;;;6.70;3.95;;;;;;;;;;5095711;28;20028;-86
2022/04/17 02:57:11;;;;;;;7.53;4.10;;;;;;;;;;5095452;28;20480;-87
2022/04/17 02:59:36;;;;;;;5.60;3.85;;;;;;;;;;5095381;28;20110;-85
2022/04/17 03:07:32;;;;;;;6.60;3.75;;;;;;;;;;5098796;28;20031;-84
2022/04/17 03:09:57;;;;;;;7.05;3.67;;;;;;;;;;5099414;28;20119;-85
2022/04/17 03:12:23;;;;;;;8.25;3.78;;;;;;;;;;5095203;28;20090;-85
2022/04/17 03:14:48;;;;;;;8.45;4.07;;;;;;;;;;5095302;28;20043;-84
2022/04/17 03:17:14;;;;;;;6.53;3.30;;;;;;;;;;5095123;28;20034;-85
2022/04/17 03:19:40;;;;;;;5.18;3.30;;;;;;;;;;5094012;28;20506;-85
2022/04/17 03:22:05;;;;;;;5.03;3.53;;;;;;;;;;5093591;28;20020;-84
2022/04/17 03:24:33;;;;;;;8.10;3.60;;;;;;;;;;5077187;28;20042;-85
2022/04/17 03:26:59;;;;;;;6.55;3.25;;;;;;;;;;5095433;28;20080;-85
2022/04/17 03:29:24;;;;;;;8.77;4.22;;;;;;;;;;5101119;28;20386;-85
2022/04/17 03:31:50;;;;;;;9.20;4.22;;;;;;;;;;5094972;28;20024;-85
2022/04/17 03:34:15;;;;;;;8.20;4.30;;;;;;;;;;5095099;28;20020;-86
2022/04/17 03:36:40;;;;;;;8.27;5.25;;;;;;;;;;5094569;28;20467;-86
2022/04/17 03:39:07;;;;;;;14.77;7.00;;;;;;;;;;5108431;28;20460;-85
2022/04/17 03:41:32;;;;;;;13.20;6.38;;;;;;;;;;5116128;28;20051;-84
2022/04/17 03:43:57;;;;;;;10.02;6.38;;;;;;;;;;5111760;28;20028;-85
2022/04/17 03:46:23;;;;;;;9.75;5.35;;;;;;;;;;5114757;28;20020;-85
2022/04/17 03:48:48;;;;;;;8.57;4.53;;;;;;;;;;5108284;28;20039;-86
2022/04/17 03:51:14;;;;;;;7.93;4.55;;;;;;;;;;5095008;28;20024;-84
2022/04/17 03:53:39;;;;;;;9.38;4.55;;;;;;;;;;5095062;28;20046;-85
2022/04/17 03:56:05;;;;;;;8.32;4.35;;;;;;;;;;5094856;28;20076;-85
2022/04/17 03:58:31;;;;;;;7.38;4.40;;;;;;;;;;5094932;28;20086;-87
2022/04/17 04:00:56;;;;;;;7.70;4.53;;;;;;;;;;5093465;28;20036;-86
2022/04/17 04:03:21;;;;;;;9.13;4.68;;;;;;;;;;5094570;28;20127;-85
2022/04/17 04:05:47;;;;;;;9.00;4.35;;;;;;;;;;5094833;28;20123;-86
2022/04/17 04:08:13;;;;;;;9.82;4.72;;;;;;;;;;5097042;28;20058;-84
2022/04/17 04:10:38;;;;;;;7.60;4.50;;;;;;;;;;5100139;28;20063;-84
2022/04/17 04:13:04;;;;;;;9.98;4.60;;;;;;;;;;5093131;28;20055;-85
2022/04/17 04:15:30;;;;;;;8.13;4.40;;;;;;;;;;5094304;28;20081;-85
2022/04/17 04:17:55;;;;;;;7.57;4.00;;;;;;;;;;5094267;28;20468;-86
2022/04/17 04:20:21;;;;;;;8.38;4.47;;;;;;;;;;5093946;28;20028;-85
2022/04/17 04:22:46;;;;;;;5.68;4.00;;;;;;;;;;5093039;28;20024;-85
2022/04/17 04:25:11;;;;;;;6.80;4.47;;;;;;;;;;5094427;28;20028;-86
2022/04/17 04:30:21;;;;;;;11.35;4.68;;;;;;;;;;5109332;28;20113;-85
2022/04/17 04:32:54;;;;;;;8.77;4.50;;;;;;;;;;5098346;28;20051;-85
2022/04/17 04:35:20;;;;;;;7.35;4.80;;;;;;;;;;5080708;28;20373;-86
2022/04/17 04:37:48;;;;;;;6.97;4.47;;;;;;;;;;5098118;28;20495;-85
2022/04/17 04:40:14;;;;;;;12.13;4.90;;;;;;;;;;5098238;28;20055;-84
2022/04/17 04:42:39;;;;;;;14.57;5.38;;;;;;;;;;5097173;28;20040;-86
2022/04/17 04:47:50;;;;;;;27.70;11.45;;;;;;;;;;5097734;28;20058;-85
2022/04/17 04:50:16;;;;;;;27.27;11.07;;;;;;;;;;5107235;28;20028;-85
2022/04/17 04:52:41;;;;;;;32.47;11.60;;;;;;;;;;5096715;28;20077;-86
2022/04/17 04:55:07;;;;;;;41.90;12.95;;;;;;;;;;5098069;28;20031;-85
2022/04/17 04:57:35;;;;;;;31.30;11.23;;;;;;;;;;5097787;28;20035;-85
2022/04/17 05:00:04;;;;;;;28.42;10.60;;;;;;;;;;5096702;28;20036;-85
2022/04/17 05:02:29;;;;;;;18.83;8.85;;;;;;;;;;5096667;28;20115;-85
2022/04/17 05:04:54;;;;;;;21.13;7.85;;;;;;;;;;5097632;28;20111;-85
2022/04/17 05:07:20;;;;;;;17.02;6.93;;;;;;;;;;5097676;28;20460;-84
2022/04/17 05:09:45;;;;;;;16.65;6.65;;;;;;;;;;5104076;28;20031;-85
2022/04/17 05:12:11;;;;;;;16.27;6.55;;;;;;;;;;5099810;28;20138;-85
2022/04/17 05:14:40;;;;;;;19.85;7.45;;;;;;;;;;5097576;28;20028;-86
2022/04/17 05:17:05;;;;;;;15.13;7.45;;;;;;;;;;5097474;28;20067;-85
2022/04/17 05:19:31;;;;;;;18.25;8.23;;;;;;;;;;5097571;28;20055;-85
2022/04/17 05:21:58;;;;;;;17.15;8.38;;;;;;;;;;5096406;28;20036;-86
2022/04/17 05:24:24;;;;;;;21.63;8.52;;;;;;;;;;5097575;28;20028;-85
2022/04/17 05:26:49;;;;;;;23.75;9.25;;;;;;;;;;5096040;28;20028;-85
2022/04/17 05:29:14;;;;;;;15.13;7.38;;;;;;;;;;5100592;28;20111;-82
2022/04/17 05:31:40;;;;;;;13.43;6.60;;;;;;;;;;5104327;28;20425;-85
2022/04/17 05:34:05;;;;;;;13.15;6.45;;;;;;;;;;5097164;28;20024;-86
2022/04/17 05:36:31;;;;;;;15.98;7.22;;;;;;;;;;5097186;28;20059;-85
2022/04/17 05:38:56;;;;;;;16.17;7.03;;;;;;;;;;5096036;28;20050;-85
2022/04/17 05:41:26;;;;;;;15.65;7.75;;;;;;;;;;5097303;28;20032;-86
2022/04/17 05:43:52;;;;;;;17.92;7.22;;;;;;;;;;5097200;28;20035;-86
2022/04/17 05:46:18;;;;;;;22.52;9.27;;;;;;;;;;5096832;28;20032;-85
2022/04/17 05:48:43;;;;;;;19.77;8.52;;;;;;;;;;5096868;28;20028;-84
2022/04/17 05:51:09;;;;;;;18.88;7.68;;;;;;;;;;5106547;28;20032;-84
2022/04/17 05:53:34;;;;;;;12.60;7.18;;;;;;;;;;5097450;28;20039;-86
2022/04/17 05:56:00;;;;;;;13.82;7.15;;;;;;;;;;5096595;28;20433;-86
2022/04/17 05:58:26;;;;;;;15.93;7.45;;;;;;;;;;5095594;28;20035;-85
2022/04/17 06:00:55;;;;;;;18.95;7.93;;;;;;;;;;5096598;28;20028;-85
2022/04/17 06:03:21;;;;;;;21.90;7.60;;;;;;;;;;5096495;28;20024;-85
2022/04/17 06:05:46;;;;;;;15.75;7.88;;;;;;;;;;5096733;28;20030;-86
2022/04/17 06:08:12;;;;;;;13.90;7.93;;;;;;;;;;5096400;28;20035;-85
2022/04/17 06:10:37;;;;;;;15.98;7.68;;;;;;;;;;5105387;28;20028;-85
2022/04/17 06:13:03;;;;;;;15.85;7.63;;;;;;;;;;5098066;28;20418;-83
2022/04/17 06:15:28;;;;;;;15.68;7.82;;;;;;;;;;5096252;28;20566;-85
2022/04/17 06:17:53;;;;;;;14.77;7.88;;;;;;;;;;5094931;28;20035;-85
2022/04/17 06:20:19;;;;;;;16.85;7.75;;;;;;;;;;5078626;28;20044;-85
2022/04/17 06:22:44;;;;;;;14.85;7.75;;;;;;;;;;5096175;28;20361;-85
2022/04/17 06:25:11;;;;;;;15.23;7.72;;;;;;;;;;5094860;28;20036;-86
2022/04/17 06:27:45;;;;;;;15.18;8.25;;;;;;;;;;5095999;28;20055;-85
2022/04/17 06:30:15;;;;;;;17.27;7.80;;;;;;;;;;5101132;28;20028;-82
2022/04/17 06:32:41;;;;;;;16.90;7.93;;;;;;;;;;5102097;28;20341;-85
2022/04/17 06:35:08;;;;;;;15.20;8.25;;;;;;;;;;5095966;28;20098;-85
2022/04/17 06:37:54;;;;;;;19.60;8.95;;;;;;;;;;5077121;28;20044;-84
2022/04/17 06:40:21;;;;;;;28.73;10.60;;;;;;;;;;5095691;28;20051;-84
2022/04/17 06:42:47;;;;;;;17.95;9.10;;;;;;;;;;5094572;28;20486;-85
2022/04/17 06:45:12;;;;;;;20.27;9.32;;;;;;;;;;5094569;28;20028;-85
2022/04/17 06:47:38;;;;;;;15.38;8.35;;;;;;;;;;5095717;28;20032;-82
2022/04/17 06:50:04;;;;;;;19.17;9.57;;;;;;;;;;5097075;28;20457;-84
2022/04/17 06:52:30;;;;;;;17.55;8.40;;;;;;;;;;5099053;28;20334;-85
2022/04/17 06:54:55;;;;;;;11.38;6.40;;;;;;;;;;5095758;28;20074;-83
2022/04/17 06:57:27;;;;;;;8.82;4.72;;;;;;;;;;5095902;28;20055;-83
2022/04/17 06:59:53;;;;;;;9.77;5.28;;;;;;;;;;5095170;28;20032;-83
2022/04/17 07:02:18;;;;;;;18.60;6.45;;;;;;;;;;5095530;28;20498;-84
2022/04/17 07:04:44;;;;;;;10.23;4.93;;;;;;;;;;5095634;28;20031;-82
2022/04/17 07:07:09;;;;;;;11.65;5.82;;;;;;;;;;5095289;28;20024;-85
2022/04/17 07:09:34;;;;;;;13.73;6.07;;;;;;;;;;5105904;28;20012;-84
2022/04/17 07:12:00;;;;;;;13.73;5.82;;;;;;;;;;5095285;28;20142;-82
2022/04/17 07:14:26;;;;;;;15.38;6.07;;;;;;;;;;5095106;28;20028;-82
2022/04/17 07:16:51;;;;;;;10.65;6.05;;;;;;;;;;5095329;28;20040;-83
2022/04/17 07:19:16;;;;;;;11.93;6.28;;;;;;;;;;5095109;28;20028;-84
2022/04/17 07:21:42;;;;;;;11.20;6.13;;;;;;;;;;5095254;28;20028;-83
2022/04/17 07:24:08;;;;;;;12.32;5.63;;;;;;;;;;5095487;28;20047;-83
2022/04/17 07:26:33;;;;;;;17.10;5.13;;;;;;;;;;5096029;28;20508;-83
2022/04/17 07:28:59;;;;;;;13.85;6.25;;;;;;;;;;5099646;28;20012;-84
2022/04/17 07:31:25;;;;;;;9.65;4.93;;;;;;;;;;5098775;28;20036;-84
2022/04/17 07:33:50;;;;;;;13.55;6.55;;;;;;;;;;5094972;28;20051;-84
2022/04/17 07:36:15;;;;;;;10.10;5.97;;;;;;;;;;5095240;28;20047;-84
2022/04/17 07:38:41;;;;;;;14.30;5.95;;;;;;;;;;5094917;28;20095;-83
2022/04/17 07:41:06;;;;;;;14.80;6.53;;;;;;;;;;5095021;28;20429;-85
2022/04/17 07:43:32;;;;;;;16.05;7.85;;;;;;;;;;5095409;28;20036;-83
2022/04/17 07:45:58;;;;;;;11.05;6.40;;;;;;;;;;5095037;28;20478;-81
2022/04/17 07:48:24;;;;;;;17.33;7.53;;;;;;;;;;5094148;28;20027;-83
2022/04/17 07:50:52;;;;;;;12.75;6.93;;;;;;;;;;5099919;28;20111;-85
2022/04/17 07:53:18;;;;;;;14.02;6.93;;;;;;;;;;5095039;28;20024;-83
2022/04/17 07:55:44;;;;;;;15.57;7.30;;;;;;;;;;5094841;28;20038;-82
2022/04/17 07:58:16;;;;;;;19.23;7.13;;;;;;;;;;5076136;28;20035;-82
2022/04/17 08:00:57;;;;;;;18.77;8.75;;;;;;;;;;5093293;28;20084;-85
2022/04/17 08:03:35;;;;;;;18.98;8.57;;;;;;;;;;5093670;28;20028;-83
2022/04/17 08:06:05;;;;;;;16.58;8.68;;;;;;;;;;5093888;28;20493;-84
2022/04/17 08:08:31;;;;;;;19.00;9.05;;;;;;;;;;5094550;28;20024;-83
2022/04/17 08:10:57;;;;;;;14.18;6.35;;;;;;;;;;5103647;28;20058;-84
2022/04/17 08:13:23;;;;;;;24.65;9.55;;;;;;;;;;5095242;28;20032;-84
2022/04/17 08:15:50;;;;;;;25.33;10.98;;;;;;;;;;5094457;28;20038;-82
2022/04/17 08:18:15;;;;;;;16.52;8.63;;;;;;;;;;5094989;28;20350;-85
2022/04/17 08:20:41;;;;;;;19.70;10.50;;;;;;;;;;5094644;28;20035;-83
2022/04/17 08:23:07;;;;;;;14.35;7.88;;;;;;;;;;5094516;28;20063;-86
2022/04/17 08:25:35;;;;;;;22.52;10.80;;;;;;;;;;5093341;28;20028;-85
2022/04/17 08:28:01;;;;;;;17.38;8.73;;;;;;;;;;5077357;28;20079;-83
2022/04/17 08:30:28;;;;;;;16.95;8.50;;;;;;;;;;5100992;28;20060;-83
2022/04/17 08:32:54;;;;;;;28.00;11.73;;;;;;;;;;5094329;28;20449;-84
2022/04/17 08:35:19;;;;;;;18.48;8.48;;;;;;;;;;5094605;28;20127;-85
2022/04/17 08:37:45;;;;;;;16.58;8.05;;;;;;;;;;5092856;28;20032;-83
2022/04/17 08:40:11;;;;;;;18.85;8.73;;;;;;;;;;5092654;28;20067;-83
2022/04/17 08:42:37;;;;;;;16.15;7.63;;;;;;;;;;5094289;28;20031;-85
2022/04/17 08:45:03;;;;;;;12.85;6.75;;;;;;;;;;5092863;28;20544;-84
2022/04/17 08:47:29;;;;;;;12.65;6.80;;;;;;;;;;5094274;28;20070;-85
2022/04/17 08:49:55;;;;;;;21.98;10.25;;;;;;;;;;5095109;28;20024;-84
2022/04/17 08:52:21;;;;;;;15.07;6.70;;;;;;;;;;5098228;28;20017;-84
2022/04/17 08:54:46;;;;;;;15.02;7.43;;;;;;;;;;5093793;28;20009;-86
2022/04/17 08:57:12;;;;;;;11.95;6.47;;;;;;;;;;5094200;28;20067;-84
2022/04/17 08:59:39;;;;;;;14.55;5.65;;;;;;;;;;5075976;28;20051;-82
2022/04/17 09:02:11;;;;;;;16.52;7.35;;;;;;;;;;5092839;28;20432;-86
2022/04/17 09:04:37;;;;;;;15.57;7.40;;;;;;;;;;5094149;28;20342;-85
2022/04/17 09:07:06;;;;;;;18.67;6.88;;;;;;;;;;5093889;28;20031;-82
2022/04/17 09:09:31;;;;;;;18.05;9.02;;;;;;;;;;5092448;28;20034;-84
2022/04/17 09:11:57;;;;;;;13.68;6.88;;;;;;;;;;5085411;28;20536;-85
2022/04/17 09:14:22;;;;;;;13.90;6.97;;;;;;;;;;5095147;28;20024;-81
2022/04/17 09:16:51;;;;;;;12.75;6.18;;;;;;;;;;5097776;28;20032;-85
2022/04/17 09:19:17;;;;;;;23.02;9.38;;;;;;;;;;5097874;28;20024;-84
2022/04/17 09:21:43;;;;;;;17.98;7.18;;;;;;;;;;5099065;28;20081;-83
2022/04/17 09:24:21;;;;;;;28.05;11.57;;;;;;;;;;5096684;28;20032;-84
2022/04/17 09:26:56;;;;;;;36.20;14.43;;;;;;;;;;5098069;28;20441;-84
2022/04/17 09:29:23;;;;;;;12.88;6.53;;;;;;;;;;5097075;28;20706;-83
2022/04/17 09:31:58;;;;;;;13.88;6.82;;;;;;;;;;5108020;28;20036;-84
2022/04/17 09:34:25;;;;;;;28.35;10.93;;;;;;;;;;5096478;28;20027;-83
2022/04/17 09:36:58;;;;;;;15.27;6.55;;;;;;;;;;5096304;28;20115;-84
2022/04/17 09:39:23;;;;;;;28.05;9.63;;;;;;;;;;5097437;28;20038;-84
2022/04/17 09:41:56;;;;;;;13.05;6.10;;;;;;;;;;5062400;28;20059;-85
2022/04/17 09:44:46;;;;;;;16.75;6.55;;;;;;;;;;5100478;28;20032;-83
2022/04/17 09:47:23;;;;;;;22.75;5.57;;;;;;;;;;5106134;28;20027;-83
2022/04/17 09:50:08;;;;;;;12.00;5.80;;;;;;;;;;5097479;28;20032;-83
2022/04/17 09:52:41;;;;;;;9.32;4.72;;;;;;;;;;5109615;28;20035;-84
2022/04/17 09:55:07;;;;;;;15.38;6.80;;;;;;;;;;5102244;28;20070;-82
2022/04/17 09:57:35;;;;;;;7.72;4.80;;;;;;;;;;5102717;28;20115;-84
2022/04/17 10:00:15;;;;;;;23.88;9.45;;;;;;;;;;5098693;28;20024;-83
2022/04/17 10:02:43;;;;;;;12.60;5.97;;;;;;;;;;5099644;28;20020;-83
2022/04/17 10:05:10;;;;;;;15.63;7.60;;;;;;;;;;5097661;28;20032;-82
2022/04/17 10:07:42;;;;;;;14.25;7.45;;;;;;;;;;5095456;28;20393;-83
2022/04/17 10:10:11;;;;;;;14.73;6.95;;;;;;;;;;5096585;28;20024;-83
2022/04/17 10:12:41;;;;;;;11.52;5.88;;;;;;;;;;5102999;28;20103;-83
2022/04/17 10:15:07;;;;;;;15.02;7.35;;;;;;;;;;5078984;28;20084;-82
2022/04/17 10:17:34;;;;;;;18.70;6.82;;;;;;;;;;5095046;28;20040;-83
2022/04/17 10:20:06;;;;;;;7.40;4.32;;;;;;;;;;5095579;28;20062;-83
2022/04/17 10:22:38;;;;;;;12.60;6.28;;;;;;;;;;5094835;28;20070;-83
2022/04/17 10:25:04;;;;;;;10.55;5.90;;;;;;;;;;5096015;28;20035;-83
2022/04/17 10:27:36;;;;;;;12.25;5.78;;;;;;;;;;5095594;28;20042;-82
2022/04/17 10:30:06;;;;;;;12.35;6.00;;;;;;;;;;5096155;28;20027;-82
2022/04/17 10:32:40;;;;;;;11.90;6.25;;;;;;;;;;5102501;28;20043;-82
2022/04/17 10:35:10;;;;;;;14.95;7.28;;;;;;;;;;5095943;28;20123;-81
2022/04/17 10:37:54;;;;;;;15.32;5.68;;;;;;;;;;5095806;28;20032;-84
2022/04/17 10:40:20;;;;;;;17.80;8.25;;;;;;;;;;5095768;28;20032;-82
2022/04/17 10:42:59;;;;;;;16.92;7.43;;;;;;;;;;5095724;28;20028;-83
2022/04/17 10:45:26;;;;;;;9.40;4.80;;;;;;;;;;5095802;28;20085;-82
2022/04/17 10:48:02;;;;;;;14.02;7.15;;;;;;;;;;5077758;28;20028;-82
2022/04/17 10:50:30;;;;;;;9.10;5.40;;;;;;;;;;5094186;28;20027;-82
2022/04/17 10:52:55;;;;;;;13.48;6.20;;;;;;;;;;5101974;28;20020;-83
2022/04/17 10:55:21;;;;;;;16.88;8.00;;;;;;;;;;5094588;28;20020;-81
2022/04/17 10:57:48;;;;;;;13.00;5.90;;;;;;;;;;5077460;28;20126;-82
2022/04/17 11:00:38;;;;;;;14.50;6.68;;;;;;;;;;5077352;28;20043;-83
2022/04/17 11:03:09;;;;;;;9.07;5.07;;;;;;;;;;5095465;28;20024;-81
2022/04/17 11:08:26;;;;;;;8.98;4.55;;;;;;;;;;5096721;28;20053;-82
2022/04/17 11:11:02;;;;;;;9.10;4.88;;;;;;;;;;5099899;28;20453;-82
2022/04/17 11:13:28;;;;;;;11.25;5.30;;;;;;;;;;5102146;28;20028;-80
2022/04/17 11:15:57;;;;;;;10.02;4.57;;;;;;;;;;5095116;28;20460;-84
2022/04/17 11:18:29;;;;;;;10.82;5.00;;;;;;;;;;5094127;28;20480;-83
2022/04/17 11:20:55;;;;;;;11.52;4.50;;;;;;;;;;5094849;28;20114;-84
2022/04/17 11:23:48;;;;;;;7.85;4.38;;;;;;;;;;5093894;28;20051;-84
2022/04/17 11:26:14;;;;;;;9.45;4.50;;;;;;;;;;5095012;28;20039;-83
2022/04/17 11:28:40;;;;;;;10.10;4.53;;;;;;;;;;5095047;28;20030;-85
2022/04/17 11:31:05;;;;;;;5.78;2.53;;;;;;;;;;5093836;28;20127;-82
2022/04/17 11:33:31;;;;;;;8.27;4.10;;;;;;;;;;5100634;28;20028;-84
2022/04/17 11:35:57;;;;;;;10.90;4.03;;;;;;;;;;5094645;28;20035;-84
2022/04/17 11:38:22;;;;;;;6.15;2.92;;;;;;;;;;5094432;28;20035;-82
2022/04/17 11:40:48;;;;;;;6.57;3.85;;;;;;;;;;5094765;28;20023;-84
2022/04/17 11:43:16;;;;;;;13.48;4.88;;;;;;;;;;5094759;28;20092;-84
2022/04/17 11:45:42;;;;;;;11.25;4.80;;;;;;;;;;5093554;28;20035;-83
2022/04/17 11:48:17;;;;;;;7.90;3.38;;;;;;;;;;5093305;28;20032;-83
2022/04/17 11:50:43;;;;;;;6.97;3.90;;;;;;;;;;5094616;28;20408;-82
2022/04/17 11:53:13;;;;;;;5.20;3.38;;;;;;;;;;5099473;28;20028;-82
2022/04/17 11:55:43;;;;;;;2.88;1.98;;;;;;;;;;5096494;28;20036;-84
2022/04/17 11:58:22;;;;;;;5.00;2.63;;;;;;;;;;5076955;28;20039;-83
2022/04/17 12:00:56;;;;;;;9.48;3.30;;;;;;;;;;5093242;28;20086;-84
2022/04/17 12:03:22;;;;;;;6.35;2.28;;;;;;;;;;5094264;28;20024;-83
2022/04/17 12:05:47;;;;;;;4.55;2.15;;;;;;;;;;5093238;28;20452;-83
2022/04/17 12:08:14;;;;;;;8.63;1.98;;;;;;;;;;5093121;28;20373;-83
2022/04/17 12:10:41;;;;;;;4.30;2.60;;;;;;;;;;5094302;28;20126;-84
2022/04/17 12:13:17;;;;;;;5.38;3.13;;;;;;;;;;5098195;28;20040;-82
2022/04/17 12:15:43;;;;;;;5.10;2.45;;;;;;;;;;5095693;28;20024;-82
2022/04/17 12:18:09;;;;;;;7.57;3.45;;;;;;;;;;5092811;28;20032;-85
2022/04/17 12:20:35;;;;;;;5.35;3.00;;;;;;;;;;5093066;28;20027;-83
2022/04/17 12:23:00;;;;;;;4.70;2.70;;;;;;;;;;5094154;28;20428;-84
2022/04/17 12:25:26;;;;;;;8.48;3.00;;;;;;;;;;5094044;28;20485;-84
2022/04/17 12:27:53;;;;;;;5.43;2.83;;;;;;;;;;5092961;28;20036;-83
2022/04/17 12:30:26;;;;;;;9.05;3.90;;;;;;;;;;5076461;28;20054;-84
2022/04/17 12:32:55;;;;;;;7.35;3.22;;;;;;;;;;5097606;28;20039;-83
2022/04/17 12:35:30;;;;;;;7.25;3.65;;;;;;;;;;5098940;28;20027;-83
2022/04/17 12:38:06;;;;;;;16.25;8.20;;;;;;;;;;5092886;28;20089;-84
2022/04/17 12:40:38;;;;;;;12.25;4.95;;;;;;;;;;5094494;28;20051;-84
2022/04/17 12:43:20;;;;;;;7.45;2.92;;;;;;;;;;5092899;28;20031;-85
2022/04/17 12:45:55;;;;;;;5.38;3.33;;;;;;;;;;5092931;28;20020;-84
2022/04/17 12:48:30;;;;;;;5.93;3.17;;;;;;;;;;5077812;28;20043;-85
2022/04/17 12:51:09;;;;;;;4.70;2.65;;;;;;;;;;5080288;28;20020;-84
2022/04/17 12:53:41;;;;;;;6.40;2.95;;;;;;;;;;5101168;28;20036;-84
2022/04/17 12:56:08;;;;;;;10.10;4.15;;;;;;;;;;5100154;28;20055;-83
2022/04/17 12:58:56;;;;;;;9.23;3.33;;;;;;;;;;5096753;28;20030;-84
2022/04/17 13:01:23;;;;;;;4.65;2.40;;;;;;;;;;5097652;28;20024;-82
2022/04/17 13:03:49;;;;;;;5.72;2.85;;;;;;;;;;5097743;28;20032;-83
2022/04/17 13:06:22;;;;;;;2.90;2.30;;;;;;;;;;5079768;28;20514;-84
2022/04/17 13:09:18;;;;;;;9.88;4.90;;;;;;;;;;5096629;28;20456;-85
2022/04/17 13:11:47;;;;;;;4.15;2.08;;;;;;;;;;5097545;28;20134;-84
2022/04/17 13:14:12;;;;;;;5.15;2.38;;;;;;;;;;5085157;28;20051;-82
2022/04/17 13:17:08;;;;;;;9.27;3.00;;;;;;;;;;5098165;28;20445;-81
2022/04/17 13:19:33;;;;;;;6.78;3.38;;;;;;;;;;5079385;28;20040;-84
2022/04/17 13:21:59;;;;;;;22.35;8.15;;;;;;;;;;5096378;28;20077;-86
2022/04/17 13:24:26;;;;;;;30.55;9.15;;;;;;;;;;5096469;28;20028;-84
2022/04/17 13:26:52;;;;;;;21.00;6.10;;;;;;;;;;5098219;28;20024;-87
2022/04/17 13:29:18;;;;;;;18.15;5.53;;;;;;;;;;5091843;28;20024;-85
2022/04/17 13:31:43;;;;;;;16.13;6.90;;;;;;;;;;5105581;28;20032;-84
2022/04/17 13:34:09;;;;;;;26.52;10.77;;;;;;;;;;5106958;28;20035;-85
2022/04/17 13:36:36;;;;;;;18.77;9.05;;;;;;;;;;5108800;28;20090;-80
2022/04/17 13:39:01;;;;;;;11.10;6.35;;;;;;;;;;5111418;28;20023;-84
2022/04/17 13:41:28;;;;;;;7.13;4.38;;;;;;;;;;5107361;28;20020;-84
2022/04/17 13:43:54;;;;;;;6.75;4.15;;;;;;;;;;5097228;28;20092;-85
2022/04/17 13:46:19;;;;;;;6.15;3.10;;;;;;;;;;5095767;28;20372;-85
2022/04/17 13:48:45;;;;;;;4.00;2.20;;;;;;;;;;5095739;28;20024;-84
2022/04/17 13:51:10;;;;;;;2.45;1.65;;;;;;;;;;5096990;28;20456;-86
2022/04/17 13:53:36;;;;;;;3.40;1.85;;;;;;;;;;5096190;28;20077;-85
2022/04/17 13:56:02;;;;;;;3.38;2.10;;;;;;;;;;5101430;28;20066;-85
2022/04/17 13:58:28;;;;;;;12.27;4.97;;;;;;;;;;5095758;28;20040;-83
2022/04/17 14:00:56;;;;;;;10.02;3.72;;;;;;;;;;5095502;28;20032;-86
2022/04/17 14:03:21;;;;;;;33.63;9.88;;;;;;;;;;5095683;28;20050;-85
2022/04/17 14:05:47;;;;;;;13.52;5.35;;;;;;;;;;5095525;28;20445;-83
2022/04/17 14:08:13;;;;;;;35.05;11.07;;;;;;;;;;5078988;28;20035;-86
2022/04/17 14:10:39;;;;;;;22.63;8.50;;;;;;;;;;5097031;28;20048;-86
2022/04/17 14:13:05;;;;;;;9.52;3.35;;;;;;;;;;5096652;28;20028;-86
2022/04/17 14:15:30;;;;;;;6.20;3.20;;;;;;;;;;5084074;28;20094;-86
2022/04/17 14:17:56;;;;;;;21.35;5.30;;;;;;;;;;5096739;28;20032;-85
2022/04/17 14:20:21;;;;;;;9.75;3.85;;;;;;;;;;5096627;28;20024;-83
2022/04/17 14:22:47;;;;;;;5.32;2.30;;;;;;;;;;5096612;28;20032;-85
2022/04/17 14:25:13;;;;;;;5.10;2.60;;;;;;;;;;5096439;28;20488;-83
2022/04/17 14:27:38;;;;;;;5.15;1.95;;;;;;;;;;5100071;28;20031;-84
2022/04/17 14:30:04;;;;;;;12.35;3.95;;;;;;;;;;5103419;28;20020;-86
2022/04/17 14:32:29;;;;;;;13.95;4.07;;;;;;;;;;5095173;28;20027;-85
2022/04/17 14:34:55;;;;;;;6.53;2.58;;;;;;;;;;5097517;28;20027;-86
2022/04/17 14:37:21;;;;;;;5.85;2.42;;;;;;;;;;5099662;28;20125;-86
2022/04/17 14:39:47;;;;;;;10.90;4.30;;;;;;;;;;5096010;28;20028;-86
2022/04/17 14:42:13;;;;;;;25.67;6.03;;;;;;;;;;5095731;28;20427;-83
2022/04/17 14:44:38;;;;;;;10.18;4.30;;;;;;;;;;5095728;28;20020;-85
2022/04/17 14:47:05;;;;;;;9.82;3.05;;;;;;;;;;5095994;28;20020;-84
2022/04/17 14:49:30;;;;;;;17.15;5.85;;;;;;;;;;5095111;28;20058;-84
2022/04/17 14:51:56;;;;;;;3.85;2.00;;;;;;;;;;5094949;28;20032;-84
2022/04/17 14:54:21;;;;;;;7.22;3.42;;;;;;;;;;5097120;28;20024;-85
2022/04/17 14:56:47;;;;;;;7.55;4.50;;;;;;;;;;5082915;28;20028;-85